sensor_id;sensor_type;location;lat;lon;timestamp;temperature;humidity
13808;DHT22;40769;51.512;5.494;2023-05-10T00:02:06;15.50;99.90
13808;DHT22;40769;51.512;5.494;2023-05-10T00:04:32;15.60;99.90
13808;DHT22;40769;51.512;5.494;2023-05-10T00:06:57;15.50;99.90
13808;DHT22;40769;51.512;5.494;2023-05-10T00:09:23;15.50;99.90
13808;DHT22;40769;51.512;5.494;2023-05-10T00:11:49;15.50;99.90
13808;DHT22;40769;51.512;5.494;2023-05-10T00:14:15;15.50;99.90
13808;DHT22;40769;51.512;5.494;2023-05-10T00:16:40;15.40;99.90
13808;DHT22;40769;51.512;5.494;2023-05-10T00:19:06;15.50;99.90
13808;DHT22;40769;51.512;5.494;2023-05-10T00:21:32;15.40;99.90
13808;DHT22;40769;51.512;5.494;2023-05-10T00:23:59;15.40;99.90
13808;DHT22;40769;51.512;5.494;2023-05-10T00:26:25;15.40;99.90
13808;DHT22;40769;51.512;5.494;2023-05-10T00:28:50;15.40;99.90
13808;DHT22;40769;51.512;5.494;2023-05-10T00:31:16;15.50;99.90
13808;DHT22;40769;51.512;5.494;2023-05-10T00:33:42;15.40;99.90
13808;DHT22;40769;51.512;5.494;2023-05-10T00:36:07;15.40;99.90
13808;DHT22;40769;51.512;5.494;2023-05-10T00:38:33;15.30;99.90
13808;DHT22;40769;51.512;5.494;2023-05-10T00:40:59;15.30;99.90
13808;DHT22;40769;51.512;5.494;2023-05-10T00:43:25;15.30;99.90
13808;DHT22;40769;51.512;5.494;2023-05-10T00:45:50;15.30;99.90
13808;DHT22;40769;51.512;5.494;2023-05-10T00:48:16;15.20;99.90
13808;DHT22;40769;51.512;5.494;2023-05-10T00:50:42;15.20;99.90
13808;DHT22;40769;51.512;5.494;2023-05-10T00:53:08;15.20;99.90
13808;DHT22;40769;51.512;5.494;2023-05-10T00:55:34;15.20;99.90
13808;DHT22;40769;51.512;5.494;2023-05-10T00:58:00;15.20;99.90
13808;DHT22;40769;51.512;5.494;2023-05-10T01:00:26;15.70;99.90
13808;DHT22;40769;51.512;5.494;2023-05-10T01:02:53;15.00;99.90
13808;DHT22;40769;51.512;5.494;2023-05-10T01:05:19;15.30;99.90
13808;DHT22;40769;51.512;5.494;2023-05-10T01:07:45;15.30;99.90
13808;DHT22;40769;51.512;5.494;2023-05-10T01:10:10;15.30;99.90
13808;DHT22;40769;51.512;5.494;2023-05-10T01:12:39;15.30;99.90
13808;DHT22;40769;51.512;5.494;2023-05-10T01:15:07;15.30;99.90
13808;DHT22;40769;51.512;5.494;2023-05-10T01:17:35;15.30;99.90
13808;DHT22;40769;51.512;5.494;2023-05-10T01:20:02;15.30;99.90
13808;DHT22;40769;51.512;5.494;2023-05-10T01:28:58;15.40;99.90
13808;DHT22;40769;51.512;5.494;2023-05-10T01:34:12;15.40;99.90
13808;DHT22;40769;51.512;5.494;2023-05-10T01:37:08;15.40;99.90
13808;DHT22;40769;51.512;5.494;2023-05-10T01:40:03;15.50;99.90
13808;DHT22;40769;51.512;5.494;2023-05-10T01:42:40;15.50;99.90
13808;DHT22;40769;51.512;5.494;2023-05-10T01:48:10;15.50;99.90
13808;DHT22;40769;51.512;5.494;2023-05-10T01:50:38;15.50;99.90
13808;DHT22;40769;51.512;5.494;2023-05-10T01:53:08;15.50;99.90
13808;DHT22;40769;51.512;5.494;2023-05-10T01:55:39;15.50;99.90
13808;DHT22;40769;51.512;5.494;2023-05-10T01:58:28;15.50;99.90
13808;DHT22;40769;51.512;5.494;2023-05-10T02:00:55;15.60;99.90
13808;DHT22;40769;51.512;5.494;2023-05-10T02:03:23;15.50;99.90
13808;DHT22;40769;51.512;5.494;2023-05-10T02:05:52;15.50;99.90
13808;DHT22;40769;51.512;5.494;2023-05-10T02:08:19;15.50;99.90
13808;DHT22;40769;51.512;5.494;2023-05-10T02:10:46;15.50;99.90
13808;DHT22;40769;51.512;5.494;2023-05-10T02:13:14;15.60;99.90
13808;DHT22;40769;51.512;5.494;2023-05-10T02:15:41;15.60;99.90
13808;DHT22;40769;51.512;5.494;2023-05-10T02:18:09;15.50;99.90
13808;DHT22;40769;51.512;5.494;2023-05-10T02:20:37;15.60;99.90
13808;DHT22;40769;51.512;5.494;2023-05-10T02:23:03;15.50;99.90
13808;DHT22;40769;51.512;5.494;2023-05-10T02:25:31;15.70;99.90
13808;DHT22;40769;51.512;5.494;2023-05-10T02:27:58;15.60;99.90
13808;DHT22;40769;51.512;5.494;2023-05-10T02:30:26;15.90;99.90
13808;DHT22;40769;51.512;5.494;2023-05-10T02:32:52;15.50;99.90
13808;DHT22;40769;51.512;5.494;2023-05-10T02:35:18;15.60;99.90
13808;DHT22;40769;51.512;5.494;2023-05-10T02:37:45;15.60;99.90
13808;DHT22;40769;51.512;5.494;2023-05-10T02:40:13;15.60;99.90
13808;DHT22;40769;51.512;5.494;2023-05-10T02:42:41;15.60;99.90
13808;DHT22;40769;51.512;5.494;2023-05-10T02:45:13;16.10;99.90
13808;DHT22;40769;51.512;5.494;2023-05-10T02:47:40;15.60;99.90
13808;DHT22;40769;51.512;5.494;2023-05-10T02:50:07;15.60;99.90
13808;DHT22;40769;51.512;5.494;2023-05-10T02:53:00;15.60;99.90
13808;DHT22;40769;51.512;5.494;2023-05-10T02:55:35;15.60;99.90
13808;DHT22;40769;51.512;5.494;2023-05-10T02:58:02;15.60;99.90
13808;DHT22;40769;51.512;5.494;2023-05-10T03:00:28;15.50;99.90
13808;DHT22;40769;51.512;5.494;2023-05-10T03:02:54;15.60;99.90
13808;DHT22;40769;51.512;5.494;2023-05-10T03:05:20;15.50;99.90
13808;DHT22;40769;51.512;5.494;2023-05-10T03:07:46;15.50;99.90
13808;DHT22;40769;51.512;5.494;2023-05-10T03:10:12;15.50;99.90
13808;DHT22;40769;51.512;5.494;2023-05-10T03:13:01;15.50;99.90
13808;DHT22;40769;51.512;5.494;2023-05-10T03:18:17;15.40;99.90
13808;DHT22;40769;51.512;5.494;2023-05-10T03:20:50;15.50;99.90
13808;DHT22;40769;51.512;5.494;2023-05-10T03:23:26;15.40;99.90
13808;DHT22;40769;51.512;5.494;2023-05-10T03:25:52;15.40;99.90
13808;DHT22;40769;51.512;5.494;2023-05-10T03:28:20;15.40;99.90
13808;DHT22;40769;51.512;5.494;2023-05-10T03:30:46;15.50;99.90
13808;DHT22;40769;51.512;5.494;2023-05-10T03:33:15;15.50;99.90
13808;DHT22;40769;51.512;5.494;2023-05-10T03:35:40;15.90;99.90
13808;DHT22;40769;51.512;5.494;2023-05-10T03:38:06;15.50;99.90
13808;DHT22;40769;51.512;5.494;2023-05-10T03:40:32;15.50;99.90
13808;DHT22;40769;51.512;5.494;2023-05-10T03:43:00;15.50;99.90
13808;DHT22;40769;51.512;5.494;2023-05-10T03:45:27;15.50;99.90
13808;DHT22;40769;51.512;5.494;2023-05-10T03:47:52;15.50;99.90
13808;DHT22;40769;51.512;5.494;2023-05-10T03:50:19;15.70;99.90
13808;DHT22;40769;51.512;5.494;2023-05-10T03:52:45;15.50;99.90
13808;DHT22;40769;51.512;5.494;2023-05-10T03:55:10;15.20;99.90
13808;DHT22;40769;51.512;5.494;2023-05-10T03:57:36;15.50;99.90
13808;DHT22;40769;51.512;5.494;2023-05-10T04:00:03;15.50;99.90
13808;DHT22;40769;51.512;5.494;2023-05-10T04:02:29;15.50;99.90
13808;DHT22;40769;51.512;5.494;2023-05-10T04:04:55;15.50;99.90
13808;DHT22;40769;51.512;5.494;2023-05-10T04:07:21;15.50;99.90
13808;DHT22;40769;51.512;5.494;2023-05-10T04:09:47;15.50;99.90
13808;DHT22;40769;51.512;5.494;2023-05-10T04:12:13;15.50;99.90
13808;DHT22;40769;51.512;5.494;2023-05-10T04:14:38;15.60;99.90
13808;DHT22;40769;51.512;5.494;2023-05-10T04:17:04;15.60;99.90
13808;DHT22;40769;51.512;5.494;2023-05-10T04:19:30;15.60;99.90
13808;DHT22;40769;51.512;5.494;2023-05-10T04:21:56;15.60;99.90
13808;DHT22;40769;51.512;5.494;2023-05-10T04:24:21;15.60;99.90
13808;DHT22;40769;51.512;5.494;2023-05-10T04:26:47;15.60;99.90
13808;DHT22;40769;51.512;5.494;2023-05-10T04:29:12;15.70;99.90
13808;DHT22;40769;51.512;5.494;2023-05-10T04:31:38;15.50;99.90
13808;DHT22;40769;51.512;5.494;2023-05-10T04:34:04;15.50;99.90
13808;DHT22;40769;51.512;5.494;2023-05-10T04:36:29;15.60;99.90
13808;DHT22;40769;51.512;5.494;2023-05-10T04:38:55;15.40;99.90
13808;DHT22;40769;51.512;5.494;2023-05-10T04:41:21;15.60;99.90
13808;DHT22;40769;51.512;5.494;2023-05-10T04:43:46;15.40;99.90
13808;DHT22;40769;51.512;5.494;2023-05-10T04:46:14;15.40;99.90
13808;DHT22;40769;51.512;5.494;2023-05-10T04:48:40;15.30;99.90
13808;DHT22;40769;51.512;5.494;2023-05-10T04:51:06;15.40;99.90
13808;DHT22;40769;51.512;5.494;2023-05-10T04:53:32;15.30;99.90
13808;DHT22;40769;51.512;5.494;2023-05-10T04:55:57;15.30;99.90
13808;DHT22;40769;51.512;5.494;2023-05-10T04:58:23;15.20;99.90
13808;DHT22;40769;51.512;5.494;2023-05-10T05:00:48;15.20;99.90
13808;DHT22;40769;51.512;5.494;2023-05-10T05:03:14;15.20;99.90
13808;DHT22;40769;51.512;5.494;2023-05-10T05:05:40;15.20;99.90
13808;DHT22;40769;51.512;5.494;2023-05-10T05:08:05;15.20;99.90
13808;DHT22;40769;51.512;5.494;2023-05-10T05:10:31;15.20;99.90
13808;DHT22;40769;51.512;5.494;2023-05-10T05:12:57;15.20;99.90
13808;DHT22;40769;51.512;5.494;2023-05-10T05:15:22;15.20;99.90
13808;DHT22;40769;51.512;5.494;2023-05-10T05:17:48;15.20;99.90
13808;DHT22;40769;51.512;5.494;2023-05-10T05:20:13;15.30;99.90
13808;DHT22;40769;51.512;5.494;2023-05-10T05:22:39;15.30;99.90
13808;DHT22;40769;51.512;5.494;2023-05-10T05:25:05;15.30;99.90
13808;DHT22;40769;51.512;5.494;2023-05-10T05:27:31;15.30;99.90
13808;DHT22;40769;51.512;5.494;2023-05-10T05:29:57;15.30;99.90
13808;DHT22;40769;51.512;5.494;2023-05-10T05:32:23;15.40;99.90
13808;DHT22;40769;51.512;5.494;2023-05-10T05:34:49;15.40;99.90
13808;DHT22;40769;51.512;5.494;2023-05-10T05:37:17;15.40;99.90
13808;DHT22;40769;51.512;5.494;2023-05-10T05:39:43;15.40;99.90
13808;DHT22;40769;51.512;5.494;2023-05-10T05:42:10;15.40;99.90
13808;DHT22;40769;51.512;5.494;2023-05-10T05:44:35;15.40;99.90
13808;DHT22;40769;51.512;5.494;2023-05-10T05:47:01;15.50;99.90
13808;DHT22;40769;51.512;5.494;2023-05-10T05:49:27;15.50;99.90
13808;DHT22;40769;51.512;5.494;2023-05-10T05:51:52;15.50;99.90
13808;DHT22;40769;51.512;5.494;2023-05-10T05:54:18;15.60;99.90
13808;DHT22;40769;51.512;5.494;2023-05-10T05:56:44;15.60;99.90
13808;DHT22;40769;51.512;5.494;2023-05-10T05:59:10;15.60;99.90
13808;DHT22;40769;51.512;5.494;2023-05-10T06:01:36;15.80;99.90
13808;DHT22;40769;51.512;5.494;2023-05-10T06:04:02;15.70;99.90
13808;DHT22;40769;51.512;5.494;2023-05-10T06:06:28;15.80;99.90
13808;DHT22;40769;51.512;5.494;2023-05-10T06:08:54;15.80;99.90
13808;DHT22;40769;51.512;5.494;2023-05-10T06:11:20;15.90;99.90
13808;DHT22;40769;51.512;5.494;2023-05-10T06:13:47;15.90;99.90
13808;DHT22;40769;51.512;5.494;2023-05-10T06:16:12;15.90;99.90
13808;DHT22;40769;51.512;5.494;2023-05-10T06:18:39;16.00;99.90
13808;DHT22;40769;51.512;5.494;2023-05-10T06:21:04;16.00;99.90
13808;DHT22;40769;51.512;5.494;2023-05-10T06:23:30;16.00;99.90
13808;DHT22;40769;51.512;5.494;2023-05-10T06:25:55;16.10;99.90
13808;DHT22;40769;51.512;5.494;2023-05-10T06:28:21;16.10;99.90
13808;DHT22;40769;51.512;5.494;2023-05-10T06:30:47;16.10;99.90
13808;DHT22;40769;51.512;5.494;2023-05-10T06:33:13;16.20;99.90
13808;DHT22;40769;51.512;5.494;2023-05-10T06:35:38;16.20;99.90
13808;DHT22;40769;51.512;5.494;2023-05-10T06:38:04;16.30;99.90
13808;DHT22;40769;51.512;5.494;2023-05-10T06:40:30;16.60;99.90
13808;DHT22;40769;51.512;5.494;2023-05-10T06:42:56;16.40;99.90
13808;DHT22;40769;51.512;5.494;2023-05-10T06:45:21;16.60;99.90
13808;DHT22;40769;51.512;5.494;2023-05-10T06:47:47;16.60;99.90
13808;DHT22;40769;51.512;5.494;2023-05-10T06:50:12;16.80;99.90
13808;DHT22;40769;51.512;5.494;2023-05-10T06:52:38;16.60;99.90
13808;DHT22;40769;51.512;5.494;2023-05-10T06:55:05;16.60;99.90
13808;DHT22;40769;51.512;5.494;2023-05-10T06:57:31;16.70;99.90
13808;DHT22;40769;51.512;5.494;2023-05-10T06:59:58;16.70;99.90
13808;DHT22;40769;51.512;5.494;2023-05-10T07:02:24;16.60;99.90
13808;DHT22;40769;51.512;5.494;2023-05-10T07:04:49;16.70;99.90
13808;DHT22;40769;51.512;5.494;2023-05-10T07:07:17;16.60;99.90
13808;DHT22;40769;51.512;5.494;2023-05-10T07:09:42;16.70;99.90
13808;DHT22;40769;51.512;5.494;2023-05-10T07:12:08;16.70;99.90
13808;DHT22;40769;51.512;5.494;2023-05-10T07:14:34;16.70;99.90
13808;DHT22;40769;51.512;5.494;2023-05-10T07:16:59;16.80;99.90
13808;DHT22;40769;51.512;5.494;2023-05-10T07:19:25;16.60;99.90
13808;DHT22;40769;51.512;5.494;2023-05-10T07:21:51;16.80;99.90
13808;DHT22;40769;51.512;5.494;2023-05-10T07:24:16;16.80;99.90
13808;DHT22;40769;51.512;5.494;2023-05-10T07:26:43;16.90;99.90
13808;DHT22;40769;51.512;5.494;2023-05-10T07:29:08;16.90;99.90
13808;DHT22;40769;51.512;5.494;2023-05-10T07:31:34;16.90;99.90
13808;DHT22;40769;51.512;5.494;2023-05-10T07:33:59;16.90;99.90
13808;DHT22;40769;51.512;5.494;2023-05-10T07:36:25;16.90;99.90
13808;DHT22;40769;51.512;5.494;2023-05-10T07:38:51;16.90;99.90
13808;DHT22;40769;51.512;5.494;2023-05-10T07:41:16;16.90;99.90
13808;DHT22;40769;51.512;5.494;2023-05-10T07:43:42;16.90;99.90
13808;DHT22;40769;51.512;5.494;2023-05-10T07:46:08;16.90;99.90
13808;DHT22;40769;51.512;5.494;2023-05-10T07:48:36;16.80;99.90
13808;DHT22;40769;51.512;5.494;2023-05-10T07:51:01;17.00;99.90
13808;DHT22;40769;51.512;5.494;2023-05-10T07:53:27;16.80;99.90
13808;DHT22;40769;51.512;5.494;2023-05-10T07:55:59;16.90;99.90
13808;DHT22;40769;51.512;5.494;2023-05-10T07:58:44;16.80;99.90
13808;DHT22;40769;51.512;5.494;2023-05-10T08:01:10;16.80;99.90
13808;DHT22;40769;51.512;5.494;2023-05-10T08:03:38;16.80;99.90
13808;DHT22;40769;51.512;5.494;2023-05-10T08:06:03;16.80;99.90
13808;DHT22;40769;51.512;5.494;2023-05-10T08:08:29;16.70;99.90
13808;DHT22;40769;51.512;5.494;2023-05-10T08:10:55;16.80;99.90
13808;DHT22;40769;51.512;5.494;2023-05-10T08:13:21;16.70;99.90
13808;DHT22;40769;51.512;5.494;2023-05-10T08:15:46;16.70;99.90
13808;DHT22;40769;51.512;5.494;2023-05-10T08:18:12;16.80;99.90
13808;DHT22;40769;51.512;5.494;2023-05-10T08:20:38;16.70;99.90
13808;DHT22;40769;51.512;5.494;2023-05-10T08:23:03;16.70;99.90
13808;DHT22;40769;51.512;5.494;2023-05-10T08:25:29;16.80;99.90
13808;DHT22;40769;51.512;5.494;2023-05-10T08:27:54;16.70;99.90
13808;DHT22;40769;51.512;5.494;2023-05-10T08:30:20;16.70;99.90
13808;DHT22;40769;51.512;5.494;2023-05-10T08:32:46;16.80;99.90
13808;DHT22;40769;51.512;5.494;2023-05-10T08:35:11;16.70;99.90
13808;DHT22;40769;51.512;5.494;2023-05-10T08:37:37;16.70;99.90
13808;DHT22;40769;51.512;5.494;2023-05-10T08:40:03;16.80;99.90
13808;DHT22;40769;51.512;5.494;2023-05-10T08:42:30;16.80;99.90
13808;DHT22;40769;51.512;5.494;2023-05-10T08:44:59;16.90;99.90
13808;DHT22;40769;51.512;5.494;2023-05-10T08:47:25;17.00;99.90
13808;DHT22;40769;51.512;5.494;2023-05-10T08:49:51;17.00;99.90
13808;DHT22;40769;51.512;5.494;2023-05-10T08:52:18;17.00;99.90
13808;DHT22;40769;51.512;5.494;2023-05-10T08:54:44;17.10;99.90
13808;DHT22;40769;51.512;5.494;2023-05-10T08:57:10;17.10;99.90
13808;DHT22;40769;51.512;5.494;2023-05-10T08:59:36;17.20;99.90
13808;DHT22;40769;51.512;5.494;2023-05-10T09:02:05;17.20;99.90
13808;DHT22;40769;51.512;5.494;2023-05-10T09:04:31;17.30;99.90
13808;DHT22;40769;51.512;5.494;2023-05-10T09:06:57;17.40;99.90
13808;DHT22;40769;51.512;5.494;2023-05-10T09:09:24;17.40;99.90
13808;DHT22;40769;51.512;5.494;2023-05-10T09:11:51;17.50;99.90
13808;DHT22;40769;51.512;5.494;2023-05-10T09:14:18;17.60;99.90
13808;DHT22;40769;51.512;5.494;2023-05-10T09:16:45;17.70;99.90
13808;DHT22;40769;51.512;5.494;2023-05-10T09:19:10;17.80;99.90
13808;DHT22;40769;51.512;5.494;2023-05-10T09:21:36;17.90;99.90
13808;DHT22;40769;51.512;5.494;2023-05-10T09:24:07;18.10;99.90
13808;DHT22;40769;51.512;5.494;2023-05-10T09:26:33;18.20;99.90
13808;DHT22;40769;51.512;5.494;2023-05-10T09:29:01;18.40;99.90
13808;DHT22;40769;51.512;5.494;2023-05-10T09:34:09;18.60;99.90
13808;DHT22;40769;51.512;5.494;2023-05-10T09:36:34;18.70;99.90
13808;DHT22;40769;51.512;5.494;2023-05-10T09:39:00;18.80;99.90
13808;DHT22;40769;51.512;5.494;2023-05-10T09:41:25;18.80;99.90
13808;DHT22;40769;51.512;5.494;2023-05-10T09:43:55;19.00;99.90
13808;DHT22;40769;51.512;5.494;2023-05-10T09:46:21;19.00;99.90
13808;DHT22;40769;51.512;5.494;2023-05-10T09:48:48;19.00;99.90
13808;DHT22;40769;51.512;5.494;2023-05-10T09:51:24;19.10;99.90
13808;DHT22;40769;51.512;5.494;2023-05-10T09:54:15;19.20;99.90
13808;DHT22;40769;51.512;5.494;2023-05-10T09:56:42;19.40;99.90
13808;DHT22;40769;51.512;5.494;2023-05-10T09:59:10;19.50;99.90
13808;DHT22;40769;51.512;5.494;2023-05-10T10:01:37;19.70;99.90
13808;DHT22;40769;51.512;5.494;2023-05-10T10:04:04;19.60;99.90
13808;DHT22;40769;51.512;5.494;2023-05-10T10:06:35;19.60;99.90
13808;DHT22;40769;51.512;5.494;2023-05-10T10:09:02;19.70;99.90
13808;DHT22;40769;51.512;5.494;2023-05-10T10:11:28;19.80;99.90
13808;DHT22;40769;51.512;5.494;2023-05-10T10:13:54;19.70;99.90
13808;DHT22;40769;51.512;5.494;2023-05-10T10:16:20;19.70;99.90
13808;DHT22;40769;51.512;5.494;2023-05-10T10:18:47;19.70;99.90
13808;DHT22;40769;51.512;5.494;2023-05-10T10:21:13;19.70;99.90
13808;DHT22;40769;51.512;5.494;2023-05-10T10:23:40;19.60;99.90
13808;DHT22;40769;51.512;5.494;2023-05-10T10:26:06;19.60;99.90
13808;DHT22;40769;51.512;5.494;2023-05-10T10:31:17;19.60;99.90
13808;DHT22;40769;51.512;5.494;2023-05-10T10:34:11;19.60;99.90
13808;DHT22;40769;51.512;5.494;2023-05-10T10:36:46;19.70;99.90
13808;DHT22;40769;51.512;5.494;2023-05-10T10:39:13;19.40;99.90
13808;DHT22;40769;51.512;5.494;2023-05-10T10:41:52;20.10;99.90
13808;DHT22;40769;51.512;5.494;2023-05-10T10:44:26;20.40;99.90
13808;DHT22;40769;51.512;5.494;2023-05-10T10:52:28;20.60;99.90
13808;DHT22;40769;51.512;5.494;2023-05-10T11:02:49;20.40;99.90
13808;DHT22;40769;51.512;5.494;2023-05-10T11:05:33;20.20;99.90
13808;DHT22;40769;51.512;5.494;2023-05-10T11:08:27;19.90;99.90
13808;DHT22;40769;51.512;5.494;2023-05-10T11:13:44;19.50;99.90
13808;DHT22;40769;51.512;5.494;2023-05-10T11:18:39;19.40;99.90
13808;DHT22;40769;51.512;5.494;2023-05-10T11:21:05;19.30;99.90
13808;DHT22;40769;51.512;5.494;2023-05-10T11:26:12;19.30;99.90
13808;DHT22;40769;51.512;5.494;2023-05-10T11:28:45;19.20;99.90
13808;DHT22;40769;51.512;5.494;2023-05-10T11:31:16;19.20;99.90
13808;DHT22;40769;51.512;5.494;2023-05-10T11:33:47;19.30;99.90
13808;DHT22;40769;51.512;5.494;2023-05-10T11:36:18;19.30;99.90
13808;DHT22;40769;51.512;5.494;2023-05-10T11:38:45;19.50;99.90
13808;DHT22;40769;51.512;5.494;2023-05-10T11:41:12;19.60;99.90
13808;DHT22;40769;51.512;5.494;2023-05-10T11:43:39;19.70;99.90
13808;DHT22;40769;51.512;5.494;2023-05-10T11:46:11;19.80;99.90
13808;DHT22;40769;51.512;5.494;2023-05-10T11:48:41;19.70;99.90
13808;DHT22;40769;51.512;5.494;2023-05-10T11:51:10;19.60;99.90
13808;DHT22;40769;51.512;5.494;2023-05-10T11:53:36;19.50;99.90
13808;DHT22;40769;51.512;5.494;2023-05-10T11:56:08;19.30;99.90
13808;DHT22;40769;51.512;5.494;2023-05-10T11:58:35;18.20;99.90
13808;DHT22;40769;51.512;5.494;2023-05-10T12:01:01;19.10;99.90
13808;DHT22;40769;51.512;5.494;2023-05-10T12:03:28;19.00;99.90
13808;DHT22;40769;51.512;5.494;2023-05-10T12:05:55;18.70;99.90
13808;DHT22;40769;51.512;5.494;2023-05-10T12:08:26;18.50;99.90
13808;DHT22;40769;51.512;5.494;2023-05-10T12:10:53;18.20;99.90
13808;DHT22;40769;51.512;5.494;2023-05-10T12:13:20;17.90;99.90
13808;DHT22;40769;51.512;5.494;2023-05-10T12:15:46;17.60;99.90
13808;DHT22;40769;51.512;5.494;2023-05-10T12:18:13;17.40;99.90
13808;DHT22;40769;51.512;5.494;2023-05-10T12:20:39;17.10;99.90
13808;DHT22;40769;51.512;5.494;2023-05-10T12:23:07;16.90;99.90
13808;DHT22;40769;51.512;5.494;2023-05-10T12:25:35;16.80;99.90
13808;DHT22;40769;51.512;5.494;2023-05-10T12:28:03;16.70;99.90
13808;DHT22;40769;51.512;5.494;2023-05-10T12:30:32;16.70;99.90
13808;DHT22;40769;51.512;5.494;2023-05-10T12:33:06;16.60;99.90
13808;DHT22;40769;51.512;5.494;2023-05-10T12:35:33;16.60;99.90
13808;DHT22;40769;51.512;5.494;2023-05-10T12:38:25;16.70;99.90
13808;DHT22;40769;51.512;5.494;2023-05-10T12:40:51;16.80;99.90
13808;DHT22;40769;51.512;5.494;2023-05-10T12:43:19;17.00;99.90
13808;DHT22;40769;51.512;5.494;2023-05-10T12:45:45;17.00;99.90
13808;DHT22;40769;51.512;5.494;2023-05-10T12:48:13;17.10;99.90
13808;DHT22;40769;51.512;5.494;2023-05-10T12:50:39;17.20;99.90
13808;DHT22;40769;51.512;5.494;2023-05-10T12:53:04;17.50;99.90
13808;DHT22;40769;51.512;5.494;2023-05-10T12:55:30;17.40;99.90
13808;DHT22;40769;51.512;5.494;2023-05-10T12:57:56;17.40;99.90
13808;DHT22;40769;51.512;5.494;2023-05-10T13:00:21;17.70;99.90
13808;DHT22;40769;51.512;5.494;2023-05-10T13:02:47;17.70;99.90
13808;DHT22;40769;51.512;5.494;2023-05-10T13:05:13;17.90;99.90
13808;DHT22;40769;51.512;5.494;2023-05-10T13:07:38;17.90;99.90
13808;DHT22;40769;51.512;5.494;2023-05-10T13:10:06;18.00;99.90
13808;DHT22;40769;51.512;5.494;2023-05-10T13:12:31;18.00;99.90
13808;DHT22;40769;51.512;5.494;2023-05-10T13:14:57;17.90;99.90
13808;DHT22;40769;51.512;5.494;2023-05-10T13:17:24;17.90;99.90
13808;DHT22;40769;51.512;5.494;2023-05-10T13:19:53;18.00;99.90
13808;DHT22;40769;51.512;5.494;2023-05-10T13:22:19;18.00;99.90
13808;DHT22;40769;51.512;5.494;2023-05-10T13:24:44;17.90;99.90
13808;DHT22;40769;51.512;5.494;2023-05-10T13:27:10;17.80;99.90
13808;DHT22;40769;51.512;5.494;2023-05-10T13:29:36;17.90;99.90
13808;DHT22;40769;51.512;5.494;2023-05-10T13:32:01;17.80;99.90
13808;DHT22;40769;51.512;5.494;2023-05-10T13:34:27;17.70;99.90
13808;DHT22;40769;51.512;5.494;2023-05-10T13:36:53;17.80;99.90
13808;DHT22;40769;51.512;5.494;2023-05-10T13:39:20;17.80;99.90
13808;DHT22;40769;51.512;5.494;2023-05-10T13:41:46;17.70;99.90
13808;DHT22;40769;51.512;5.494;2023-05-10T13:44:13;17.70;99.90
13808;DHT22;40769;51.512;5.494;2023-05-10T13:46:42;17.70;99.90
13808;DHT22;40769;51.512;5.494;2023-05-10T13:49:09;17.70;99.90
13808;DHT22;40769;51.512;5.494;2023-05-10T13:51:35;17.70;99.90
13808;DHT22;40769;51.512;5.494;2023-05-10T13:54:02;17.70;99.90
13808;DHT22;40769;51.512;5.494;2023-05-10T13:56:27;17.60;99.90
13808;DHT22;40769;51.512;5.494;2023-05-10T13:58:53;17.60;99.90
13808;DHT22;40769;51.512;5.494;2023-05-10T14:01:19;17.60;99.90
13808;DHT22;40769;51.512;5.494;2023-05-10T14:03:44;17.10;99.90
13808;DHT22;40769;51.512;5.494;2023-05-10T14:06:10;17.40;99.90
13808;DHT22;40769;51.512;5.494;2023-05-10T14:08:36;17.40;99.90
13808;DHT22;40769;51.512;5.494;2023-05-10T14:11:02;17.30;99.90
13808;DHT22;40769;51.512;5.494;2023-05-10T14:13:28;17.40;99.90
13808;DHT22;40769;51.512;5.494;2023-05-10T14:15:54;17.20;99.90
13808;DHT22;40769;51.512;5.494;2023-05-10T14:18:20;17.20;99.90
13808;DHT22;40769;51.512;5.494;2023-05-10T14:20:46;17.10;99.90
13808;DHT22;40769;51.512;5.494;2023-05-10T14:23:12;17.00;99.90
13808;DHT22;40769;51.512;5.494;2023-05-10T14:25:40;16.90;99.90
13808;DHT22;40769;51.512;5.494;2023-05-10T14:28:06;16.80;99.90
13808;DHT22;40769;51.512;5.494;2023-05-10T14:30:32;16.90;99.90
13808;DHT22;40769;51.512;5.494;2023-05-10T14:32:59;16.60;99.90
13808;DHT22;40769;51.512;5.494;2023-05-10T14:35:26;16.50;99.90
13808;DHT22;40769;51.512;5.494;2023-05-10T14:37:55;16.40;99.90
13808;DHT22;40769;51.512;5.494;2023-05-10T14:40:20;16.30;99.90
13808;DHT22;40769;51.512;5.494;2023-05-10T14:42:46;16.30;99.90
13808;DHT22;40769;51.512;5.494;2023-05-10T14:45:12;16.40;99.90
13808;DHT22;40769;51.512;5.494;2023-05-10T14:47:38;16.30;99.90
13808;DHT22;40769;51.512;5.494;2023-05-10T14:50:04;16.30;99.90
13808;DHT22;40769;51.512;5.494;2023-05-10T14:52:29;16.30;99.90
13808;DHT22;40769;51.512;5.494;2023-05-10T14:54:55;16.30;99.90
13808;DHT22;40769;51.512;5.494;2023-05-10T14:57:21;16.40;99.90
13808;DHT22;40769;51.512;5.494;2023-05-10T14:59:49;16.40;99.90
13808;DHT22;40769;51.512;5.494;2023-05-10T15:02:15;16.40;99.90
13808;DHT22;40769;51.512;5.494;2023-05-10T15:04:41;16.40;99.90
13808;DHT22;40769;51.512;5.494;2023-05-10T15:07:07;16.40;99.90
13808;DHT22;40769;51.512;5.494;2023-05-10T15:09:32;16.40;99.90
13808;DHT22;40769;51.512;5.494;2023-05-10T15:11:58;16.90;99.90
13808;DHT22;40769;51.512;5.494;2023-05-10T15:14:23;16.30;99.90
13808;DHT22;40769;51.512;5.494;2023-05-10T15:16:49;16.30;99.90
13808;DHT22;40769;51.512;5.494;2023-05-10T15:19:15;16.30;99.90
13808;DHT22;40769;51.512;5.494;2023-05-10T15:21:40;16.30;99.90
13808;DHT22;40769;51.512;5.494;2023-05-10T15:24:08;16.30;99.90
13808;DHT22;40769;51.512;5.494;2023-05-10T15:26:35;16.20;99.90
13808;DHT22;40769;51.512;5.494;2023-05-10T15:29:00;16.30;99.90
13808;DHT22;40769;51.512;5.494;2023-05-10T15:31:29;16.20;99.90
13808;DHT22;40769;51.512;5.494;2023-05-10T15:33:58;16.30;99.90
13808;DHT22;40769;51.512;5.494;2023-05-10T15:36:27;16.20;99.90
13808;DHT22;40769;51.512;5.494;2023-05-10T15:38:55;16.40;99.90
13808;DHT22;40769;51.512;5.494;2023-05-10T15:41:24;16.20;99.90
13808;DHT22;40769;51.512;5.494;2023-05-10T15:43:50;16.40;99.90
13808;DHT22;40769;51.512;5.494;2023-05-10T15:46:16;16.20;99.90
13808;DHT22;40769;51.512;5.494;2023-05-10T15:48:42;16.20;99.90
13808;DHT22;40769;51.512;5.494;2023-05-10T15:51:07;16.20;99.90
13808;DHT22;40769;51.512;5.494;2023-05-10T15:53:33;16.20;99.90
13808;DHT22;40769;51.512;5.494;2023-05-10T15:55:59;16.20;99.90
13808;DHT22;40769;51.512;5.494;2023-05-10T15:58:24;16.20;99.90
13808;DHT22;40769;51.512;5.494;2023-05-10T16:00:50;16.30;99.90
13808;DHT22;40769;51.512;5.494;2023-05-10T16:03:15;16.20;99.90
13808;DHT22;40769;51.512;5.494;2023-05-10T16:05:41;16.30;99.90
13808;DHT22;40769;51.512;5.494;2023-05-10T16:08:06;16.30;99.90
13808;DHT22;40769;51.512;5.494;2023-05-10T16:10:32;16.30;99.90
13808;DHT22;40769;51.512;5.494;2023-05-10T16:12:58;16.30;99.90